Time;durP1;ratioP1;P1;durP2;ratioP2;P2;SDS_P1;SDS_P2;PMS_P1;PMS_P2;Temp;Humidity;BMP_temperature;BMP_pressure;BME280_temperature;BME280_humidity;BME280_pressure;Samples;Min_cycle;Max_cycle;Signal;HPM_P1;HPM_P2
2022/05/07 00:00:04;;;;;;;8.73;5.03;;;;;;;;;;5047202;28;20064;-63
2022/05/07 00:02:35;;;;;;;11.38;4.95;;;;;;;;;;5069088;28;20508;-63
2022/05/07 00:05:06;;;;;;;10.15;5.13;;;;;;;;;;5068805;28;20532;-63
2022/05/07 00:07:37;;;;;;;8.20;4.97;;;;;;;;;;5068958;28;20071;-63
2022/05/07 00:10:08;;;;;;;11.15;4.45;;;;;;;;;;5028569;28;20053;-63
2022/05/07 00:12:39;;;;;;;8.88;4.63;;;;;;;;;;5023247;28;20048;-63
2022/05/07 00:15:10;;;;;;;10.20;4.25;;;;;;;;;;5068891;28;20093;-63
2022/05/07 00:20:32;;;;;;;13.13;4.75;;;;;;;;;;5028372;28;20045;-63
2022/05/07 00:23:03;;;;;;;9.00;4.22;;;;;;;;;;4924816;28;20051;-63
2022/05/07 00:25:34;;;;;;;10.85;4.75;;;;;;;;;;4973772;28;20074;-63
2022/05/07 00:28:05;;;;;;;8.48;4.60;;;;;;;;;;4973864;28;20066;-63
2022/05/07 00:30:36;;;;;;;11.35;5.30;;;;;;;;;;4954330;28;20074;-63
2022/05/07 00:33:06;;;;;;;10.35;5.07;;;;;;;;;;4953876;28;20070;-63
2022/05/07 00:35:37;;;;;;;8.82;4.50;;;;;;;;;;4937689;29;20058;-63
2022/05/07 00:38:08;;;;;;;11.55;4.55;;;;;;;;;;4948902;28;20054;-63
2022/05/07 00:40:39;;;;;;;10.02;5.13;;;;;;;;;;4982760;28;20066;-62
2022/05/07 00:43:15;;;;;;;10.35;4.40;;;;;;;;;;4951532;28;20050;-62
2022/05/07 00:45:47;;;;;;;9.20;4.00;;;;;;;;;;4978400;28;20055;-63
2022/05/07 00:48:18;;;;;;;9.10;5.45;;;;;;;;;;4920886;28;20043;-63
2022/05/07 00:53:39;;;;;;;12.70;4.35;;;;;;;;;;4958947;28;20046;-63
2022/05/07 00:56:10;;;;;;;9.18;4.60;;;;;;;;;;4972719;28;20059;-63
2022/05/07 00:58:42;;;;;;;8.18;4.00;;;;;;;;;;4986539;28;20054;-64
2022/05/07 01:01:15;;;;;;;8.05;3.85;;;;;;;;;;4939046;29;20054;-63
2022/05/07 01:03:46;;;;;;;8.10;4.70;;;;;;;;;;4936764;29;20047;-63
2022/05/07 01:06:18;;;;;;;10.30;3.92;;;;;;;;;;4949756;29;20447;-63
2022/05/07 01:08:50;;;;;;;9.10;4.47;;;;;;;;;;4902696;29;20043;-63
2022/05/07 01:11:21;;;;;;;8.88;4.07;;;;;;;;;;4953650;29;20059;-63
2022/05/07 01:13:56;;;;;;;8.60;4.40;;;;;;;;;;4953570;29;20055;-63
2022/05/07 01:16:30;;;;;;;8.82;4.63;;;;;;;;;;4938247;29;20063;-63
2022/05/07 01:19:01;;;;;;;9.85;4.65;;;;;;;;;;4933877;29;20056;-63
2022/05/07 01:21:31;;;;;;;11.95;4.80;;;;;;;;;;4926442;29;20053;-63
2022/05/07 01:24:02;;;;;;;10.40;4.53;;;;;;;;;;4864943;29;20056;-63
2022/05/07 01:26:37;;;;;;;10.13;4.38;;;;;;;;;;4865129;29;20056;-63
2022/05/07 01:29:08;;;;;;;10.13;4.85;;;;;;;;;;4892414;29;20052;-63
2022/05/07 01:31:42;;;;;;;11.45;5.10;;;;;;;;;;4933716;29;20463;-63
2022/05/07 01:34:13;;;;;;;10.68;5.43;;;;;;;;;;4917014;29;20056;-63
2022/05/07 01:36:49;;;;;;;11.50;5.07;;;;;;;;;;4952758;29;20051;-63
2022/05/07 01:39:21;;;;;;;10.43;5.47;;;;;;;;;;4886177;29;20068;-63
2022/05/07 01:41:51;;;;;;;11.85;5.10;;;;;;;;;;4895896;29;20555;-63
2022/05/07 01:44:22;;;;;;;11.13;5.95;;;;;;;;;;4876425;29;20053;-63
2022/05/07 01:49:43;;;;;;;16.63;6.32;;;;;;;;;;4925583;29;20058;-62
2022/05/07 01:52:14;;;;;;;15.90;6.75;;;;;;;;;;4952500;29;20047;-62
2022/05/07 01:54:47;;;;;;;14.50;6.97;;;;;;;;;;4918762;29;20065;-63
2022/05/07 01:57:17;;;;;;;13.05;6.32;;;;;;;;;;4919817;29;20056;-62
2022/05/07 01:59:49;;;;;;;15.05;7.07;;;;;;;;;;4909075;29;20192;-62
2022/05/07 02:02:20;;;;;;;14.63;6.15;;;;;;;;;;4910548;29;20055;-62
2022/05/07 02:04:51;;;;;;;13.90;6.85;;;;;;;;;;4895411;29;20059;-62
2022/05/07 02:07:25;;;;;;;11.70;5.68;;;;;;;;;;4900025;29;20056;-62
2022/05/07 02:09:56;;;;;;;13.98;5.95;;;;;;;;;;4923145;29;20083;-62
2022/05/07 02:12:29;;;;;;;15.30;8.23;;;;;;;;;;4914362;29;20083;-63
2022/05/07 02:15:01;;;;;;;11.85;5.55;;;;;;;;;;4909962;29;20410;-62
2022/05/07 02:17:32;;;;;;;14.63;6.30;;;;;;;;;;4895077;29;20052;-62
2022/05/07 02:20:03;;;;;;;12.40;5.93;;;;;;;;;;4913705;29;20543;-63
2022/05/07 02:22:35;;;;;;;11.02;5.90;;;;;;;;;;4913845;29;20059;-63
2022/05/07 02:25:06;;;;;;;11.95;7.47;;;;;;;;;;4929545;29;20048;-62
2022/05/07 02:27:37;;;;;;;12.40;5.57;;;;;;;;;;4902143;29;20057;-62
2022/05/07 02:30:08;;;;;;;15.25;6.03;;;;;;;;;;4906376;29;20071;-63
2022/05/07 02:32:40;;;;;;;10.48;5.70;;;;;;;;;;4921224;29;20063;-62
2022/05/07 02:35:11;;;;;;;11.00;4.25;;;;;;;;;;4929482;29;20690;-62
2022/05/07 02:37:43;;;;;;;8.95;4.80;;;;;;;;;;4932349;29;20067;-62
2022/05/07 02:40:14;;;;;;;10.90;5.22;;;;;;;;;;4945296;29;20059;-62
2022/05/07 02:42:48;;;;;;;12.68;3.92;;;;;;;;;;4913436;29;20393;-62
2022/05/07 02:45:20;;;;;;;9.35;4.63;;;;;;;;;;4913010;29;20048;-62
2022/05/07 02:47:55;;;;;;;11.73;5.18;;;;;;;;;;4913673;29;20056;-62
2022/05/07 02:50:26;;;;;;;12.27;5.55;;;;;;;;;;4913412;29;20610;-63
2022/05/07 02:52:56;;;;;;;10.98;5.45;;;;;;;;;;4913142;29;20063;-62
2022/05/07 02:55:27;;;;;;;10.52;4.82;;;;;;;;;;4913876;29;20460;-62
2022/05/07 02:57:59;;;;;;;11.88;5.07;;;;;;;;;;4913470;29;20052;-62
2022/05/07 03:00:29;;;;;;;10.82;4.97;;;;;;;;;;4936214;29;20051;-63
2022/05/07 03:03:00;;;;;;;14.23;5.82;;;;;;;;;;4935103;28;20155;-62
2022/05/07 03:05:31;;;;;;;8.63;5.00;;;;;;;;;;4928396;29;20063;-62
2022/05/07 03:08:04;;;;;;;11.32;5.50;;;;;;;;;;4931914;29;20047;-63
2022/05/07 03:10:37;;;;;;;12.05;4.60;;;;;;;;;;4939200;28;20436;-62
2022/05/07 03:13:09;;;;;;;10.38;5.03;;;;;;;;;;4932447;29;20052;-62
2022/05/07 03:15:40;;;;;;;10.10;4.97;;;;;;;;;;4944041;28;20067;-62
2022/05/07 03:18:14;;;;;;;9.43;5.15;;;;;;;;;;4900712;29;20071;-62
2022/05/07 03:20:45;;;;;;;13.10;5.47;;;;;;;;;;4905938;29;20725;-62
2022/05/07 03:23:19;;;;;;;11.65;5.68;;;;;;;;;;4913319;29;20056;-62
2022/05/07 03:25:57;;;;;;;11.50;6.10;;;;;;;;;;4931897;29;20067;-63
2022/05/07 03:28:27;;;;;;;9.20;3.85;;;;;;;;;;4931826;29;20047;-62
2022/05/07 03:30:59;;;;;;;10.52;5.57;;;;;;;;;;4877886;29;20083;-63
2022/05/07 03:33:30;;;;;;;11.63;5.00;;;;;;;;;;4913037;29;20059;-63
2022/05/07 03:36:00;;;;;;;9.95;3.83;;;;;;;;;;4912886;29;20401;-63
2022/05/07 03:38:31;;;;;;;8.98;4.78;;;;;;;;;;4912860;29;20056;-62
2022/05/07 03:41:08;;;;;;;11.05;4.97;;;;;;;;;;4887017;29;20061;-63
2022/05/07 03:43:40;;;;;;;7.90;4.32;;;;;;;;;;4804241;29;20172;-63
2022/05/07 03:46:10;;;;;;;9.43;4.60;;;;;;;;;;4847939;29;20065;-62
2022/05/07 03:48:52;;;;;;;10.48;4.90;;;;;;;;;;4860758;29;20053;-62
2022/05/07 03:51:23;;;;;;;8.18;3.70;;;;;;;;;;4859638;29;20437;-62
2022/05/07 03:54:01;;;;;;;10.88;4.70;;;;;;;;;;4879104;29;20065;-62
2022/05/07 03:56:32;;;;;;;12.20;5.00;;;;;;;;;;4951486;28;20052;-63
2022/05/07 03:59:05;;;;;;;9.80;4.97;;;;;;;;;;4935990;28;20063;-62
2022/05/07 04:01:43;;;;;;;;;;;;;;;;;;4955202;29;20055;-62
2022/05/07 04:04:14;;;;;;;10.18;5.22;;;;;;;;;;4908011;29;19970;-62
2022/05/07 04:06:44;;;;;;;12.05;4.97;;;;;;;;;;4916704;29;20056;-62
2022/05/07 04:09:17;;;;;;;9.73;4.57;;;;;;;;;;4931025;29;20412;-62
2022/05/07 04:11:47;;;;;;;9.73;4.60;;;;;;;;;;4888120;29;20055;-62
2022/05/07 04:14:18;;;;;;;8.43;4.90;;;;;;;;;;4935270;29;20055;-62
2022/05/07 04:16:51;;;;;;;9.35;4.85;;;;;;;;;;4954394;29;20055;-62
2022/05/07 04:19:23;;;;;;;10.00;5.03;;;;;;;;;;4940400;29;20534;-63
2022/05/07 04:21:57;;;;;;;8.68;4.63;;;;;;;;;;4935050;29;20043;-62
2022/05/07 04:24:36;;;;;;;9.95;4.13;;;;;;;;;;4935071;29;20055;-62
2022/05/07 04:27:08;;;;;;;11.50;4.30;;;;;;;;;;4921090;29;20416;-62
2022/05/07 04:29:41;;;;;;;12.13;5.13;;;;;;;;;;4947673;29;20180;-62
2022/05/07 04:32:18;;;;;;;8.65;3.65;;;;;;;;;;4916337;29;20501;-63
2022/05/07 04:34:58;;;;;;;8.38;4.07;;;;;;;;;;4904853;29;20061;-63
2022/05/07 04:37:32;;;;;;;10.07;4.68;;;;;;;;;;4941889;29;20048;-62
2022/05/07 04:40:04;;;;;;;9.63;4.25;;;;;;;;;;4941460;29;20063;-62
2022/05/07 04:42:43;;;;;;;9.45;4.35;;;;;;;;;;4953778;29;20051;-62
2022/05/07 04:45:15;;;;;;;10.65;4.45;;;;;;;;;;4922395;29;20052;-62
2022/05/07 04:48:05;;;;;;;10.18;5.05;;;;;;;;;;4966856;28;20043;-62
2022/05/07 04:50:37;;;;;;;8.70;4.53;;;;;;;;;;4954096;28;20060;-62
2022/05/07 04:53:27;;;;;;;9.23;3.38;;;;;;;;;;4969077;28;20431;-62
2022/05/07 04:56:04;;;;;;;11.40;4.22;;;;;;;;;;4934821;29;20063;-62
2022/05/07 04:58:40;;;;;;;9.57;4.55;;;;;;;;;;4946924;28;20052;-62
2022/05/07 05:01:12;;;;;;;9.27;4.30;;;;;;;;;;4952113;28;20062;-62
2022/05/07 05:03:48;;;;;;;9.75;4.65;;;;;;;;;;4953300;29;20047;-62
2022/05/07 05:06:24;;;;;;;12.38;4.85;;;;;;;;;;4991817;28;20165;-63
2022/05/07 05:09:02;;;;;;;8.52;3.92;;;;;;;;;;4972817;28;20423;-62
2022/05/07 05:11:39;;;;;;;8.52;3.78;;;;;;;;;;4934061;29;20428;-62
2022/05/07 05:17:01;;;;;;;8.98;4.88;;;;;;;;;;4953209;28;20067;-62
2022/05/07 05:19:32;;;;;;;12.75;5.22;;;;;;;;;;4928576;29;20060;-62
2022/05/07 05:22:07;;;;;;;11.02;4.22;;;;;;;;;;4933902;29;20109;-62
2022/05/07 05:24:38;;;;;;;9.60;5.05;;;;;;;;;;4933160;29;20063;-62
2022/05/07 05:27:08;;;;;;;9.23;4.30;;;;;;;;;;4930971;29;20059;-62
2022/05/07 05:29:45;;;;;;;8.95;4.30;;;;;;;;;;4933517;29;20062;-62
2022/05/07 05:32:18;;;;;;;9.90;4.18;;;;;;;;;;4933569;29;20059;-62
2022/05/07 05:34:55;;;;;;;12.15;4.15;;;;;;;;;;4918680;29;20215;-62
2022/05/07 05:37:35;;;;;;;9.68;4.40;;;;;;;;;;4914678;29;20089;-62
2022/05/07 05:40:06;;;;;;;10.80;4.63;;;;;;;;;;4898895;29;20052;-62
2022/05/07 05:42:41;;;;;;;9.57;4.50;;;;;;;;;;4914768;29;20056;-63
2022/05/07 05:45:12;;;;;;;8.57;4.57;;;;;;;;;;4915944;29;20063;-62
2022/05/07 05:47:46;;;;;;;10.05;4.68;;;;;;;;;;4914528;29;20055;-62
2022/05/07 05:50:17;;;;;;;10.77;4.55;;;;;;;;;;4891681;29;20053;-62
2022/05/07 05:52:48;;;;;;;10.77;4.25;;;;;;;;;;4948097;28;20046;-62
2022/05/07 05:55:19;;;;;;;9.45;4.75;;;;;;;;;;4938100;28;20068;-62
2022/05/07 05:57:52;;;;;;;10.88;3.95;;;;;;;;;;4929473;29;20637;-62
2022/05/07 06:00:24;;;;;;;8.45;4.10;;;;;;;;;;4942428;29;20055;-62
2022/05/07 06:02:55;;;;;;;10.27;4.88;;;;;;;;;;4932945;29;20048;-62
2022/05/07 06:05:29;;;;;;;10.32;3.60;;;;;;;;;;4948489;29;20460;-62
2022/05/07 06:08:00;;;;;;;7.75;3.40;;;;;;;;;;4918310;29;20456;-62
2022/05/07 06:10:37;;;;;;;11.65;4.85;;;;;;;;;;4924603;29;20108;-62
2022/05/07 06:13:11;;;;;;;9.75;3.80;;;;;;;;;;4946989;29;20487;-62
2022/05/07 06:15:51;;;;;;;9.50;4.30;;;;;;;;;;4938090;28;20523;-62
2022/05/07 06:18:25;;;;;;;9.20;4.40;;;;;;;;;;4933155;29;20056;-62
2022/05/07 06:21:02;;;;;;;10.13;4.72;;;;;;;;;;4927851;29;20064;-63
2022/05/07 06:23:39;;;;;;;10.07;4.60;;;;;;;;;;4883924;29;20059;-62
2022/05/07 06:29:08;;;;;;;;;;;;;;;;;;4876788;29;20053;-62
2022/05/07 06:31:41;;;;;;;11.73;4.15;;;;;;;;;;4876672;29;19990;-62
2022/05/07 06:34:13;;;;;;;11.68;4.80;;;;;;;;;;4875939;29;20056;-62
2022/05/07 06:36:51;;;;;;;11.63;4.70;;;;;;;;;;4894634;29;20057;-63
2022/05/07 06:39:22;;;;;;;9.27;4.78;;;;;;;;;;4895061;29;20056;-62
2022/05/07 06:41:52;;;;;;;10.93;4.47;;;;;;;;;;4829231;29;20050;-63
2022/05/07 06:44:23;;;;;;;11.27;5.25;;;;;;;;;;4820836;29;20050;-62
2022/05/07 06:46:57;;;;;;;10.48;4.72;;;;;;;;;;4857139;29;20054;-62
2022/05/07 06:49:28;;;;;;;13.32;4.55;;;;;;;;;;4857586;29;20049;-62
2022/05/07 06:51:58;;;;;;;11.43;5.30;;;;;;;;;;4875532;29;20053;-62
2022/05/07 06:54:30;;;;;;;12.52;4.53;;;;;;;;;;4910108;29;20429;-62
2022/05/07 06:57:01;;;;;;;14.07;4.53;;;;;;;;;;4913657;29;20060;-62
2022/05/07 06:59:32;;;;;;;11.02;5.47;;;;;;;;;;4929330;29;20070;-62
2022/05/07 07:02:03;;;;;;;12.95;4.20;;;;;;;;;;4932371;29;20051;-62
2022/05/07 07:04:34;;;;;;;8.48;3.60;;;;;;;;;;4951268;29;20430;-63
2022/05/07 07:07:05;;;;;;;7.28;2.95;;;;;;;;;;4989945;28;20379;-62
2022/05/07 07:09:36;;;;;;;11.15;4.07;;;;;;;;;;4990208;28;20058;-63
2022/05/07 07:12:09;;;;;;;11.52;4.55;;;;;;;;;;4970589;28;20057;-62
2022/05/07 07:14:41;;;;;;;9.18;3.75;;;;;;;;;;4906909;29;20060;-62
2022/05/07 07:17:11;;;;;;;8.10;3.53;;;;;;;;;;4875969;29;20061;-62
2022/05/07 07:19:42;;;;;;;9.18;3.80;;;;;;;;;;4904827;29;20055;-62
2022/05/07 07:22:13;;;;;;;8.10;3.83;;;;;;;;;;4913581;29;20067;-62
2022/05/07 07:24:44;;;;;;;9.00;3.63;;;;;;;;;;4913050;29;20064;-62
2022/05/07 07:27:15;;;;;;;9.07;4.05;;;;;;;;;;4897378;29;20067;-62
2022/05/07 07:29:47;;;;;;;8.73;3.70;;;;;;;;;;4878438;29;20057;-62
2022/05/07 07:32:17;;;;;;;8.80;2.80;;;;;;;;;;4893511;29;20437;-62
2022/05/07 07:34:51;;;;;;;7.95;3.38;;;;;;;;;;4863298;29;20059;-62
2022/05/07 07:37:22;;;;;;;9.32;4.35;;;;;;;;;;4909494;29;20068;-63
2022/05/07 07:39:52;;;;;;;8.35;4.22;;;;;;;;;;4878829;29;20057;-62
2022/05/07 07:42:23;;;;;;;10.02;4.50;;;;;;;;;;4894315;29;20142;-62
2022/05/07 07:50:35;;;;;;;7.35;4.25;;;;;;;;;;4928490;29;20047;-62
2022/05/07 07:53:07;;;;;;;7.50;4.00;;;;;;;;;;4947448;29;20059;-62
2022/05/07 07:55:39;;;;;;;7.57;4.07;;;;;;;;;;4919241;29;20554;-62
2022/05/07 07:58:11;;;;;;;7.43;3.95;;;;;;;;;;4988412;28;20054;-62
2022/05/07 08:00:44;;;;;;;7.15;3.13;;;;;;;;;;4985578;28;20430;-62
2022/05/07 08:03:17;;;;;;;8.32;4.25;;;;;;;;;;4970184;28;20098;-62
2022/05/07 08:05:51;;;;;;;9.82;4.05;;;;;;;;;;4970251;28;20065;-62
2022/05/07 08:14:00;;;;;;;8.02;3.90;;;;;;;;;;5009018;28;20050;-63
2022/05/07 08:16:31;;;;;;;7.88;3.58;;;;;;;;;;5009155;28;20058;-62
2022/05/07 08:19:06;;;;;;;6.82;3.70;;;;;;;;;;5009085;28;20081;-62
2022/05/07 08:21:37;;;;;;;9.82;3.58;;;;;;;;;;5009018;28;20068;-62
2022/05/07 08:24:07;;;;;;;7.38;3.40;;;;;;;;;;5009090;28;20049;-63
2022/05/07 08:26:38;;;;;;;8.82;3.25;;;;;;;;;;4988917;28;20402;-62
2022/05/07 08:29:09;;;;;;;7.57;4.30;;;;;;;;;;4989478;28;20081;-62
2022/05/07 08:31:41;;;;;;;6.78;2.95;;;;;;;;;;4989459;28;20061;-62
2022/05/07 08:34:11;;;;;;;10.95;3.40;;;;;;;;;;4989503;28;20085;-62
2022/05/07 08:36:43;;;;;;;9.25;3.80;;;;;;;;;;4954859;28;20059;-62
2022/05/07 08:39:14;;;;;;;8.20;3.38;;;;;;;;;;4984472;28;20054;-63
2022/05/07 08:41:46;;;;;;;8.25;2.95;;;;;;;;;;4989525;28;20506;-63
2022/05/07 08:44:16;;;;;;;9.07;3.70;;;;;;;;;;4976228;28;20058;-63
2022/05/07 08:46:46;;;;;;;8.15;4.25;;;;;;;;;;4992782;28;20054;-63
2022/05/07 08:49:18;;;;;;;7.82;3.58;;;;;;;;;;4993192;28;20450;-62
2022/05/07 08:51:49;;;;;;;9.52;4.03;;;;;;;;;;4992783;28;20419;-62
2022/05/07 08:54:20;;;;;;;10.18;4.47;;;;;;;;;;4992839;28;20062;-62
2022/05/07 08:56:50;;;;;;;12.52;5.00;;;;;;;;;;4992520;28;20062;-63
2022/05/07 08:59:22;;;;;;;10.50;5.05;;;;;;;;;;4992507;28;20055;-62
2022/05/07 09:01:53;;;;;;;13.20;4.22;;;;;;;;;;4992364;28;20050;-62
2022/05/07 09:04:23;;;;;;;11.93;4.70;;;;;;;;;;5026670;28;20053;-62
2022/05/07 09:06:58;;;;;;;10.55;5.53;;;;;;;;;;4979245;28;20049;-62
2022/05/07 09:09:31;;;;;;;10.27;4.55;;;;;;;;;;4976649;28;20054;-62
2022/05/07 09:12:02;;;;;;;9.68;4.60;;;;;;;;;;4972723;28;20051;-62
2022/05/07 09:14:32;;;;;;;10.32;5.03;;;;;;;;;;4956643;28;20564;-62
2022/05/07 09:17:03;;;;;;;7.47;3.72;;;;;;;;;;4959542;28;20434;-62
2022/05/07 09:19:34;;;;;;;8.35;4.20;;;;;;;;;;4992453;28;20566;-62
2022/05/07 09:22:09;;;;;;;7.53;4.00;;;;;;;;;;4933841;29;20639;-62
2022/05/07 09:24:40;;;;;;;6.57;3.78;;;;;;;;;;4934280;29;20071;-62
2022/05/07 09:27:17;;;;;;;9.32;4.72;;;;;;;;;;4911433;29;20524;-62
2022/05/07 09:30:02;;;;;;;8.50;4.82;;;;;;;;;;4896811;29;20065;-62
2022/05/07 09:32:37;;;;;;;9.20;4.05;;;;;;;;;;4896053;29;20529;-62
2022/05/07 09:38:05;;;;;;;8.68;4.78;;;;;;;;;;4896137;29;20052;-61
2022/05/07 09:40:40;;;;;;;10.25;4.32;;;;;;;;;;4931458;29;20059;-62
2022/05/07 09:43:12;;;;;;;11.43;4.43;;;;;;;;;;4902254;29;20051;-63
2022/05/07 09:45:43;;;;;;;11.77;4.65;;;;;;;;;;4933875;29;20079;-62
2022/05/07 09:48:16;;;;;;;11.63;4.60;;;;;;;;;;4952782;29;20058;-62
2022/05/07 09:50:47;;;;;;;16.35;5.07;;;;;;;;;;4971360;28;20066;-63
2022/05/07 09:58:57;;;;;;;13.50;5.43;;;;;;;;;;4982516;28;20049;-62
2022/05/07 10:01:38;;;;;;;17.10;5.30;;;;;;;;;;5030846;28;20068;-63
2022/05/07 10:04:27;;;;;;;14.55;5.35;;;;;;;;;;5039801;28;20055;-62
2022/05/07 10:07:34;;;;;;;10.45;4.38;;;;;;;;;;5073356;28;20044;-62
2022/05/07 10:10:28;;;;;;;14.73;5.05;;;;;;;;;;5072921;28;20045;-62
2022/05/07 10:13:01;;;;;;;11.00;4.43;;;;;;;;;;5002171;28;20124;-63
2022/05/07 10:15:33;;;;;;;11.98;5.25;;;;;;;;;;5050626;28;20072;-63
2022/05/07 10:18:14;;;;;;;10.35;4.32;;;;;;;;;;5034172;28;20057;-62
2022/05/07 10:20:48;;;;;;;12.20;4.57;;;;;;;;;;5050645;28;20045;-62
2022/05/07 10:23:29;;;;;;;15.80;4.95;;;;;;;;;;5033492;28;20067;-63
2022/05/07 10:26:01;;;;;;;10.32;4.35;;;;;;;;;;5002318;28;20045;-62
2022/05/07 10:28:41;;;;;;;20.20;5.65;;;;;;;;;;5050224;28;20532;-63
2022/05/07 10:31:47;;;;;;;13.45;4.53;;;;;;;;;;5050062;28;20060;-63
2022/05/07 10:34:27;;;;;;;16.00;4.40;;;;;;;;;;5050483;28;20524;-63
2022/05/07 10:37:08;;;;;;;9.75;4.30;;;;;;;;;;5050432;28;20037;-63
2022/05/07 10:39:51;;;;;;;10.75;3.85;;;;;;;;;;5050015;28;20432;-62
2022/05/07 10:42:22;;;;;;;13.48;5.70;;;;;;;;;;5029858;28;20493;-62
2022/05/07 10:44:53;;;;;;;13.13;5.78;;;;;;;;;;5045894;28;20052;-62
2022/05/07 10:47:24;;;;;;;13.70;6.18;;;;;;;;;;5033218;28;20056;-63
2022/05/07 10:50:16;;;;;;;21.70;5.15;;;;;;;;;;5049912;28;20413;-62
2022/05/07 10:52:56;;;;;;;22.98;6.82;;;;;;;;;;5033550;28;20061;-63
2022/05/07 10:55:29;;;;;;;16.65;6.78;;;;;;;;;;5033849;28;20049;-63
2022/05/07 10:58:00;;;;;;;19.67;6.95;;;;;;;;;;5049692;28;20068;-62
2022/05/07 11:00:34;;;;;;;25.42;7.82;;;;;;;;;;4996419;28;20049;-62
2022/05/07 11:03:05;;;;;;;18.83;7.32;;;;;;;;;;5014140;28;20053;-62
2022/05/07 11:05:39;;;;;;;18.00;6.47;;;;;;;;;;4954526;28;20055;-63
2022/05/07 11:08:10;;;;;;;20.88;6.88;;;;;;;;;;4970850;28;20047;-62
2022/05/07 11:10:42;;;;;;;28.45;5.78;;;;;;;;;;4955346;28;20055;-63
2022/05/07 11:13:13;;;;;;;15.30;6.70;;;;;;;;;;4951345;29;20062;-63
2022/05/07 11:15:50;;;;;;;19.60;7.82;;;;;;;;;;4935578;29;20047;-63
2022/05/07 11:18:20;;;;;;;16.55;6.80;;;;;;;;;;4951373;29;20054;-62
2022/05/07 11:21:03;;;;;;;19.88;7.07;;;;;;;;;;4964373;28;20046;-62
2022/05/07 11:23:39;;;;;;;17.10;6.80;;;;;;;;;;4938599;28;20062;-62
2022/05/07 11:26:15;;;;;;;16.23;6.38;;;;;;;;;;4970563;28;20523;-63
2022/05/07 11:28:48;;;;;;;19.52;7.70;;;;;;;;;;4938507;28;20057;-62
2022/05/07 11:31:27;;;;;;;17.88;7.57;;;;;;;;;;4970567;28;20508;-62
2022/05/07 11:34:07;;;;;;;19.88;7.32;;;;;;;;;;4970579;28;20047;-62
2022/05/07 11:36:37;;;;;;;;;;;;;;;;;;4971049;28;20054;-63
2022/05/07 11:39:08;;;;;;;26.00;7.85;;;;;;;;;;4955039;28;19929;-62
2022/05/07 11:41:39;;;;;;;20.92;9.52;;;;;;;;;;4938524;28;20062;-62
2022/05/07 11:47:23;;;;;;;24.75;8.23;;;;;;;;;;4931989;29;20058;-62
2022/05/07 11:50:06;;;;;;;17.15;5.75;;;;;;;;;;4921245;28;20095;-63
2022/05/07 11:52:37;;;;;;;18.90;7.35;;;;;;;;;;4989636;28;20203;-62
2022/05/07 11:55:09;;;;;;;18.60;6.72;;;;;;;;;;4988960;28;20766;-61
2022/05/07 11:57:44;;;;;;;22.10;9.50;;;;;;;;;;4963811;28;20057;-62
2022/05/07 12:00:15;;;;;;;19.83;7.80;;;;;;;;;;5035756;28;20076;-63
2022/05/07 12:02:56;;;;;;;24.83;7.25;;;;;;;;;;5048785;28;20068;-62
2022/05/07 12:05:38;;;;;;;32.78;10.30;;;;;;;;;;5031892;28;20413;-63
2022/05/07 12:08:19;;;;;;;24.20;9.63;;;;;;;;;;5048693;28;20068;-62
2022/05/07 12:10:53;;;;;;;31.27;15.18;;;;;;;;;;5048445;28;20143;-63
2022/05/07 12:13:25;;;;;;;100.50;55.03;;;;;;;;;;5048613;28;20057;-63
2022/05/07 12:18:51;;;;;;;28.02;9.80;;;;;;;;;;5007303;28;20099;-63
2022/05/07 12:29:48;;;;;;;19.13;7.78;;;;;;;;;;4991684;28;20092;-62
2022/05/07 12:29:52;;;;;;;22.23;7.88;;;;;;;;;;5021056;28;20410;-62
2022/05/07 12:32:24;;;;;;;32.10;11.80;;;;;;;;;;4987676;28;20046;-63
2022/05/07 12:34:56;;;;;;;34.05;11.82;;;;;;;;;;5001497;28;20061;-63
2022/05/07 12:37:28;;;;;;;114.65;43.60;;;;;;;;;;4979037;28;20046;-63
2022/05/07 12:39:58;;;;;;;61.70;25.02;;;;;;;;;;4967711;28;20058;-63
2022/05/07 12:42:30;;;;;;;107.88;53.88;;;;;;;;;;4945540;29;20062;-63
2022/05/07 12:45:01;;;;;;;28.73;11.88;;;;;;;;;;4988635;28;20422;-63
2022/05/07 12:47:32;;;;;;;33.25;14.90;;;;;;;;;;4980335;28;20073;-63
2022/05/07 12:50:03;;;;;;;24.33;11.60;;;;;;;;;;4932588;28;20063;-63
2022/05/07 12:52:33;;;;;;;44.08;16.17;;;;;;;;;;4955114;28;20059;-63
2022/05/07 12:55:23;;;;;;;27.73;10.10;;;;;;;;;;4954373;28;20054;-63
2022/05/07 12:57:54;;;;;;;34.45;12.52;;;;;;;;;;4972202;28;20054;-63
2022/05/07 13:00:24;;;;;;;24.27;8.88;;;;;;;;;;4972332;28;20058;-63
2022/05/07 13:03:00;;;;;;;32.03;12.23;;;;;;;;;;4956258;28;20050;-63
2022/05/07 13:05:33;;;;;;;47.75;15.48;;;;;;;;;;4972523;28;20047;-63
2022/05/07 13:08:21;;;;;;;41.03;16.40;;;;;;;;;;4975507;28;20058;-64
2022/05/07 13:10:51;;;;;;;44.22;15.70;;;;;;;;;;4973656;28;20062;-64
2022/05/07 13:13:24;;;;;;;37.85;14.20;;;;;;;;;;4969237;28;20046;-64
2022/05/07 13:15:55;;;;;;;45.10;14.80;;;;;;;;;;4946281;28;20062;-63
2022/05/07 13:18:27;;;;;;;47.78;16.10;;;;;;;;;;4943778;28;20058;-64
2022/05/07 13:20:58;;;;;;;38.03;12.68;;;;;;;;;;4963239;28;20055;-64
2022/05/07 13:23:29;;;;;;;41.65;14.95;;;;;;;;;;4972396;28;20047;-64
2022/05/07 13:26:00;;;;;;;43.67;15.18;;;;;;;;;;4956506;28;20117;-63
2022/05/07 13:28:31;;;;;;;45.00;17.02;;;;;;;;;;4972315;28;20058;-64
2022/05/07 13:31:01;;;;;;;41.38;15.20;;;;;;;;;;4956379;28;20074;-64
2022/05/07 13:33:32;;;;;;;38.72;12.27;;;;;;;;;;4934084;28;20451;-63
2022/05/07 13:36:03;;;;;;;40.67;14.02;;;;;;;;;;4981693;28;20061;-63
2022/05/07 13:38:34;;;;;;;40.20;15.40;;;;;;;;;;4982196;28;20111;-64
2022/05/07 13:41:05;;;;;;;30.60;13.27;;;;;;;;;;4970931;28;20054;-63
2022/05/07 13:43:35;;;;;;;36.72;13.00;;;;;;;;;;4957476;28;20062;-64
2022/05/07 13:46:06;;;;;;;31.25;12.32;;;;;;;;;;4984957;28;20065;-63
2022/05/07 13:48:37;;;;;;;34.95;14.20;;;;;;;;;;4991069;28;20077;-63
2022/05/07 13:51:08;;;;;;;25.20;10.93;;;;;;;;;;4968005;28;20058;-64
2022/05/07 13:53:39;;;;;;;28.73;11.50;;;;;;;;;;4973070;28;20046;-63
2022/05/07 13:56:10;;;;;;;18.75;8.65;;;;;;;;;;4971369;28;20062;-64
2022/05/07 13:58:41;;;;;;;20.55;9.52;;;;;;;;;;4971824;28;20534;-63
2022/05/07 14:01:12;;;;;;;18.77;8.48;;;;;;;;;;4971606;28;20411;-64
2022/05/07 14:03:42;;;;;;;14.15;6.78;;;;;;;;;;4971618;28;20554;-63
2022/05/07 14:06:16;;;;;;;15.13;7.82;;;;;;;;;;4955525;28;20133;-63
2022/05/07 14:08:49;;;;;;;16.05;8.95;;;;;;;;;;4989378;28;20506;-63
2022/05/07 14:11:20;;;;;;;17.13;10.48;;;;;;;;;;4990389;28;20043;-63
2022/05/07 14:13:50;;;;;;;11.32;6.75;;;;;;;;;;5005220;28;20053;-64
2022/05/07 14:16:21;;;;;;;14.05;6.57;;;;;;;;;;4986353;28;20136;-64
2022/05/07 14:18:52;;;;;;;14.57;5.53;;;;;;;;;;4979807;28;20051;-64
2022/05/07 14:21:23;;;;;;;9.43;5.13;;;;;;;;;;4979566;28;20160;-63
2022/05/07 14:23:54;;;;;;;13.32;6.82;;;;;;;;;;4980280;28;20498;-64
2022/05/07 14:26:24;;;;;;;8.57;4.10;;;;;;;;;;4963434;28;20541;-64
2022/05/07 14:28:55;;;;;;;7.65;4.38;;;;;;;;;;4936043;28;20050;-63
2022/05/07 14:31:26;;;;;;;7.57;4.13;;;;;;;;;;4929540;28;20045;-63
2022/05/07 14:34:00;;;;;;;6.38;4.07;;;;;;;;;;5021729;28;20053;-63
2022/05/07 14:36:41;;;;;;;7.82;3.97;;;;;;;;;;5037597;28;20412;-63
2022/05/07 14:39:13;;;;;;;6.65;3.15;;;;;;;;;;4995008;28;20550;-64
2022/05/07 14:41:44;;;;;;;8.05;4.60;;;;;;;;;;5031683;28;20056;-64
2022/05/07 14:44:15;;;;;;;9.77;4.63;;;;;;;;;;5037528;28;20056;-64
2022/05/07 14:46:46;;;;;;;7.55;3.95;;;;;;;;;;5043210;28;20052;-64
2022/05/07 14:49:22;;;;;;;7.47;4.72;;;;;;;;;;5047666;28;20053;-64
2022/05/07 14:51:53;;;;;;;7.93;3.72;;;;;;;;;;5042414;28;20055;-65
2022/05/07 14:54:43;;;;;;;5.90;3.90;;;;;;;;;;5025472;28;20535;-64
2022/05/07 14:57:13;;;;;;;7.10;4.90;;;;;;;;;;5063603;28;20101;-64
2022/05/07 14:59:44;;;;;;;6.40;3.75;;;;;;;;;;5040578;28;20060;-64
2022/05/07 15:02:15;;;;;;;6.28;3.67;;;;;;;;;;5017592;28;20052;-65
2022/05/07 15:04:46;;;;;;;6.57;3.70;;;;;;;;;;5059168;28;20096;-64
2022/05/07 15:07:16;;;;;;;6.05;2.70;;;;;;;;;;5062097;28;20412;-65
2022/05/07 15:12:36;;;;;;;6.28;4.15;;;;;;;;;;5051709;28;20041;-65
2022/05/07 15:15:08;;;;;;;4.63;2.90;;;;;;;;;;5051446;28;20047;-65
2022/05/07 15:17:39;;;;;;;4.07;2.63;;;;;;;;;;5051348;28;20493;-64
2022/05/07 15:20:11;;;;;;;3.92;2.10;;;;;;;;;;5052302;28;20416;-65
2022/05/07 15:22:46;;;;;;;5.55;3.50;;;;;;;;;;5064946;28;20051;-65
2022/05/07 15:25:18;;;;;;;5.15;3.63;;;;;;;;;;5069263;28;20056;-66
2022/05/07 15:27:49;;;;;;;4.68;2.15;;;;;;;;;;5071112;28;20408;-65
2022/05/07 15:30:20;;;;;;;4.75;2.80;;;;;;;;;;5052620;28;20504;-66
2022/05/07 15:38:29;;;;;;;38.10;28.90;;;;;;;;;;5061269;28;20489;-65
2022/05/07 15:40:59;;;;;;;5.57;3.10;;;;;;;;;;5058666;28;20504;-65
2022/05/07 15:43:30;;;;;;;71.20;48.72;;;;;;;;;;5047869;28;20048;-65
2022/05/07 15:46:01;;;;;;;105.15;74.90;;;;;;;;;;5059134;28;20040;-66
2022/05/07 15:48:32;;;;;;;4.65;3.10;;;;;;;;;;5064633;28;20048;-66
2022/05/07 15:51:03;;;;;;;3.83;2.63;;;;;;;;;;5084756;28;20056;-67
2022/05/07 15:53:35;;;;;;;82.40;61.13;;;;;;;;;;5012295;28;20060;-65
2022/05/07 15:56:06;;;;;;;6.97;3.15;;;;;;;;;;5072269;28;20056;-65
2022/05/07 15:58:37;;;;;;;4.75;2.40;;;;;;;;;;5061542;28;20397;-64
2022/05/07 16:01:08;;;;;;;222.75;191.90;;;;;;;;;;5017642;28;20053;-65